Woodburn, Mississippi
Current Conditions -  °F | °C
As of 2:15 PM on Sunday 23 Nov 2014 (Local Time) from KGLH Reporting Station
Overcast Overcast  
Wind Chill: 63°   Ceiling: 2400
Heat Index: 63°   Visibility: 9mi
Dew Point: 60°   Wind: 20mph
Humidity: 90%   Direction: 250°WSW
Pressure: 29.42"   Gusts: NA
Location:  33.4825°N, 90.6856°W
Report Text: KGLH 232015Z AUTO 25017KT 9SM SCT010 BKN024 OVC055 17/16 A2942 RMK AO2 P0001 T01720156 $
Loading
Personal Weather Stations






























Interactive Weather Map New forecast layout! Learn more

10-Day Weather Forecast

Advertisements
Track Severe Weather on mobile